Time;durP1;ratioP1;P1;durP2;ratioP2;P2;SDS_P1;SDS_P2;PMS_P1;PMS_P2;Temp;Humidity;BMP_temperature;BMP_pressure;BME280_temperature;BME280_humidity;BME280_pressure;Samples;Min_cycle;Max_cycle;Signal;HPM_P1;HPM_P2
2021/03/18 00:01:23;;;;;;;7.97;2.20;;;-0.50;95.90;;;;;;5089816;28;20407;-47
2021/03/18 00:03:49;;;;;;;10.18;2.25;;;-0.60;95.80;;;;;;5089276;28;20384;-47
2021/03/18 00:06:16;;;;;;;15.13;2.35;;;-0.70;96.10;;;;;;5089188;28;20389;-46
2021/03/18 00:08:42;;;;;;;9.33;2.13;;;-0.70;96.50;;;;;;5089771;28;20403;-48
2021/03/18 00:11:10;;;;;;;10.75;2.30;;;-0.80;96.60;;;;;;5090212;28;20919;-46
2021/03/18 00:13:37;;;;;;;15.07;2.60;;;-0.80;96.90;;;;;;5089889;28;20447;-46
2021/03/18 00:16:04;;;;;;;20.03;2.70;;;-0.80;97.20;;;;;;5088803;28;20400;-46
2021/03/18 00:18:32;;;;;;;11.45;2.45;;;-0.90;97.40;;;;;;5087889;28;20399;-46
2021/03/18 00:21:01;;;;;;;21.17;3.08;;;-0.90;97.70;;;;;;5088424;28;20385;-46
2021/03/18 00:23:29;;;;;;;11.38;2.35;;;-0.90;97.90;;;;;;5090281;28;20907;-45
2021/03/18 00:25:55;;;;;;;12.68;2.67;;;-0.80;97.70;;;;;;5071750;28;21238;-46
2021/03/18 00:28:21;;;;;;;9.25;2.17;;;-0.80;97.90;;;;;;5088554;28;20404;-46
2021/03/18 00:30:47;;;;;;;14.70;2.60;;;-0.80;98.30;;;;;;5089695;28;20415;-46
2021/03/18 00:33:14;;;;;;;16.58;2.80;;;-0.90;98.30;;;;;;5089741;28;20380;-47
2021/03/18 00:35:40;;;;;;;25.75;3.10;;;-0.90;98.50;;;;;;5088237;28;20748;-48
2021/03/18 00:38:06;;;;;;;11.25;2.70;;;-0.90;98.90;;;;;;5089388;28;20380;-47
2021/03/18 00:40:35;;;;;;;12.18;2.58;;;-0.90;98.80;;;;;;5089124;28;20820;-46
2021/03/18 00:43:05;;;;;;;15.13;2.75;;;-0.80;98.90;;;;;;5089469;28;20392;-46
2021/03/18 00:45:33;;;;;;;11.18;2.70;;;-0.80;98.70;;;;;;5086210;28;20392;-46
2021/03/18 00:48:00;;;;;;;11.80;2.40;;;-0.80;98.70;;;;;;5093069;28;20927;-46
2021/03/18 00:50:57;;;;;;;21.25;3.00;;;-0.80;98.80;;;;;;5093768;28;20868;-46
2021/03/18 00:53:24;;;;;;;15.73;2.30;;;-0.80;99.00;;;;;;5080477;28;20463;-47
2021/03/18 00:55:51;;;;;;;11.60;2.78;;;-0.90;99.00;;;;;;5092980;28;20404;-46
2021/03/18 00:58:18;;;;;;;14.68;2.58;;;-0.80;99.50;;;;;;5092394;28;20388;-46
2021/03/18 01:00:45;;;;;;;12.63;2.58;;;-0.90;99.30;;;;;;5093483;28;20385;-47
2021/03/18 01:03:11;;;;;;;7.93;2.13;;;-0.90;99.40;;;;;;5093547;28;20839;-46
2021/03/18 01:05:39;;;;;;;7.10;2.33;;;-0.90;99.30;;;;;;5093508;28;20756;-46
2021/03/18 01:08:06;;;;;;;6.88;2.45;;;-0.90;99.20;;;;;;5092312;28;20856;-46
2021/03/18 01:10:40;;;;;;;12.70;2.30;;;-0.80;99.30;;;;;;5092467;28;20400;-46
2021/03/18 01:13:06;;;;;;;16.40;2.47;;;-0.80;99.20;;;;;;5091025;28;20752;-46
2021/03/18 01:15:33;;;;;;;12.90;2.72;;;-0.80;99.30;;;;;;5091312;28;20405;-46
2021/03/18 01:17:59;;;;;;;15.82;3.03;;;-0.80;99.40;;;;;;5091944;28;20376;-46
2021/03/18 01:20:25;;;;;;;14.27;2.50;;;-0.90;99.40;;;;;;5093359;28;20392;-46
2021/03/18 01:22:52;;;;;;;11.35;2.50;;;-0.90;99.60;;;;;;5092580;28;20420;-46
2021/03/18 01:25:18;;;;;;;7.60;2.40;;;-0.90;99.80;;;;;;5092001;28;20388;-47
2021/03/18 01:27:44;;;;;;;10.13;2.78;;;-0.90;99.90;;;;;;5093249;28;20389;-46
2021/03/18 01:30:16;;;;;;;13.15;2.67;;;-0.90;99.90;;;;;;5074835;28;21124;-46
2021/03/18 01:32:42;;;;;;;7.18;2.47;;;-0.90;99.90;;;;;;5074564;28;20400;-47
2021/03/18 01:35:14;;;;;;;7.68;2.50;;;-0.90;99.80;;;;;;5092950;28;20400;-46
2021/03/18 01:37:40;;;;;;;12.45;2.75;;;-0.90;99.90;;;;;;5091249;28;20717;-46
2021/03/18 01:40:07;;;;;;;8.48;2.40;;;-0.90;99.90;;;;;;5091969;28;20923;-46
2021/03/18 01:42:33;;;;;;;11.82;2.40;;;-1.00;99.90;;;;;;5092223;28;20385;-46
2021/03/18 01:45:00;;;;;;;10.65;2.55;;;-0.90;99.90;;;;;;5091718;28;20404;-46
2021/03/18 01:47:26;;;;;;;14.02;2.55;;;-0.90;99.90;;;;;;5092680;28;20392;-46
2021/03/18 01:49:52;;;;;;;11.10;2.40;;;-1.00;99.90;;;;;;5090618;28;20396;-46
2021/03/18 01:52:18;;;;;;;13.82;2.40;;;-1.00;99.90;;;;;;5092501;28;20404;-47
2021/03/18 01:54:45;;;;;;;13.05;2.60;;;-1.00;99.90;;;;;;5090479;28;21029;-46
2021/03/18 01:57:11;;;;;;;11.02;2.72;;;-1.00;99.90;;;;;;5092237;28;20891;-46
2021/03/18 01:59:37;;;;;;;13.65;2.63;;;-1.00;99.90;;;;;;5056940;28;20384;-47
2021/03/18 02:02:03;;;;;;;11.50;2.60;;;-1.00;99.90;;;;;;5091755;28;20392;-45
2021/03/18 02:04:29;;;;;;;10.05;2.60;;;-1.00;99.90;;;;;;5091887;28;20864;-46
2021/03/18 02:06:56;;;;;;;7.60;2.25;;;-1.10;99.90;;;;;;5067875;28;20392;-47
2021/03/18 02:09:22;;;;;;;9.38;2.20;;;-1.10;99.90;;;;;;5074239;28;20415;-46
2021/03/18 02:11:48;;;;;;;10.65;2.30;;;-1.00;99.90;;;;;;5092221;28;20388;-48
2021/03/18 02:14:14;;;;;;;10.95;2.38;;;-1.00;99.90;;;;;;5092279;28;20388;-46
2021/03/18 02:16:40;;;;;;;12.65;2.80;;;-1.00;99.90;;;;;;5090484;28;20458;-46
2021/03/18 02:19:40;;;;;;;9.63;2.40;;;-1.00;99.90;;;;;;5073365;28;20376;-46
2021/03/18 02:22:20;;;;;;;12.27;2.70;;;-1.00;99.90;;;;;;5069866;28;20388;-47
2021/03/18 02:24:58;;;;;;;6.95;2.38;;;-1.00;99.90;;;;;;5073507;28;20396;-47
2021/03/18 02:27:24;;;;;;;17.90;2.50;;;-0.90;99.90;;;;;;5089681;28;20392;-46
2021/03/18 02:30:24;;;;;;;6.47;1.77;;;-0.90;99.90;;;;;;5091816;28;20425;-46
2021/03/18 02:33:20;;;;;;;9.57;1.90;;;-1.00;99.90;;;;;;5071396;28;20396;-47
2021/03/18 02:35:55;;;;;;;6.13;1.80;;;-1.00;99.90;;;;;;5090526;28;20436;-46
2021/03/18 02:38:31;;;;;;;8.00;2.05;;;-1.00;99.90;;;;;;5074243;28;20864;-49
2021/03/18 02:41:06;;;;;;;12.73;2.20;;;-1.00;99.90;;;;;;5073392;28;20388;-47
2021/03/18 02:43:35;;;;;;;14.80;2.08;;;-1.00;99.90;;;;;;5073653;28;20736;-47
2021/03/18 02:46:02;;;;;;;8.27;2.28;;;-1.00;99.90;;;;;;5063019;28;20400;-47
2021/03/18 02:48:31;;;;;;;12.02;2.50;;;-1.00;99.90;;;;;;5056816;28;20375;-47
2021/03/18 02:50:57;;;;;;;9.77;2.10;;;-1.10;99.90;;;;;;5072071;28;20911;-48
2021/03/18 02:53:25;;;;;;;6.28;1.92;;;-1.10;99.90;;;;;;5056679;28;20415;-46
2021/03/18 02:55:51;;;;;;;12.05;2.33;;;-1.10;99.90;;;;;;5072332;28;20947;-46
2021/03/18 02:58:22;;;;;;;11.05;2.35;;;-1.10;99.90;;;;;;5090592;28;20389;-47
2021/03/18 03:00:50;;;;;;;14.73;2.28;;;-1.20;99.90;;;;;;5073143;28;20399;-47
2021/03/18 03:03:17;;;;;;;12.32;2.30;;;-1.20;99.90;;;;;;5072792;28;20369;-48
2021/03/18 03:05:47;;;;;;;13.03;2.20;;;-1.20;99.90;;;;;;5054619;28;20721;-47
2021/03/18 03:08:13;;;;;;;14.30;2.35;;;-1.30;99.90;;;;;;5090302;28;20389;-47
2021/03/18 03:10:39;;;;;;;8.75;1.70;;;-1.30;99.90;;;;;;5053182;28;20385;-45
2021/03/18 03:13:06;;;;;;;10.43;1.90;;;-1.30;99.90;;;;;;5072364;28;20927;-46
2021/03/18 03:15:32;;;;;;;8.50;1.90;;;-1.30;99.90;;;;;;5060655;28;20909;-46
2021/03/18 03:18:00;;;;;;;12.10;2.10;;;-1.30;99.90;;;;;;5090111;28;20384;-45
2021/03/18 03:20:26;;;;;;;6.38;2.00;;;-1.30;99.90;;;;;;5055703;28;20384;-46
2021/03/18 03:22:53;;;;;;;10.15;2.47;;;-1.30;99.90;;;;;;5072378;28;20373;-47
2021/03/18 03:25:20;;;;;;;7.95;2.58;;;-1.30;99.90;;;;;;5056142;28;20388;-46
2021/03/18 03:27:46;;;;;;;9.95;2.30;;;-1.30;99.90;;;;;;5090515;28;20407;-48
2021/03/18 03:30:13;;;;;;;11.17;2.23;;;-1.30;99.90;;;;;;5072545;28;20411;-46
2021/03/18 03:32:40;;;;;;;7.40;2.20;;;-1.40;99.90;;;;;;5071409;28;20380;-46
2021/03/18 03:35:07;;;;;;;6.73;1.80;;;-1.40;99.90;;;;;;5089956;28;20400;-47
2021/03/18 03:37:33;;;;;;;6.72;2.03;;;-1.40;99.90;;;;;;5055097;28;20864;-46
2021/03/18 03:39:59;;;;;;;12.10;2.22;;;-1.40;99.90;;;;;;5090594;28;20385;-47
2021/03/18 03:42:25;;;;;;;10.63;2.05;;;-1.50;99.90;;;;;;5089346;28;20392;-45
2021/03/18 03:44:51;;;;;;;8.05;2.25;;;-1.50;99.90;;;;;;5071083;28;20392;-47
2021/03/18 03:47:18;;;;;;;7.78;2.20;;;-1.50;99.90;;;;;;5089820;28;20388;-46
2021/03/18 03:49:44;;;;;;;8.48;2.17;;;-1.50;99.90;;;;;;5089478;28;20384;-47
2021/03/18 03:52:24;;;;;;;7.85;2.10;;;-1.60;99.90;;;;;;5072225;28;20935;-46
2021/03/18 03:54:55;;;;;;;8.23;2.22;;;-1.60;99.90;;;;;;5066360;28;20393;-47
2021/03/18 03:57:56;;;;;;;7.38;2.38;;;-1.60;99.90;;;;;;5072399;28;20415;-49
2021/03/18 04:00:23;;;;;;;6.78;2.17;;;-1.70;99.90;;;;;;5073871;28;20396;-50
2021/03/18 04:02:50;;;;;;;8.25;2.08;;;-1.70;99.90;;;;;;5070592;28;20377;-49
2021/03/18 04:05:16;;;;;;;9.00;2.25;;;-1.60;99.90;;;;;;5050536;28;20393;-49
2021/03/18 04:07:42;;;;;;;7.22;2.05;;;-1.70;99.90;;;;;;5071003;28;20384;-48
2021/03/18 04:10:09;;;;;;;7.63;2.55;;;-1.70;99.90;;;;;;5055439;28;20388;-48
2021/03/18 04:12:37;;;;;;;8.93;2.30;;;-1.80;99.90;;;;;;5072239;28;20388;-48
2021/03/18 04:15:05;;;;;;;10.52;2.10;;;-1.80;99.90;;;;;;5088691;28;20403;-47
2021/03/18 04:17:32;;;;;;;11.10;2.47;;;-1.80;99.90;;;;;;5087788;28;20384;-47
2021/03/18 04:20:00;;;;;;;6.53;1.92;;;-1.70;99.90;;;;;;5060331;28;20386;-48
2021/03/18 04:22:27;;;;;;;12.13;2.30;;;-1.80;99.90;;;;;;5069075;28;20376;-48
2021/03/18 04:24:53;;;;;;;7.13;2.27;;;-1.80;99.90;;;;;;5060246;28;20745;-48
2021/03/18 04:27:19;;;;;;;7.05;2.10;;;-1.80;99.90;;;;;;5069819;28;20876;-48
2021/03/18 04:29:46;;;;;;;9.80;2.20;;;-1.90;99.90;;;;;;5052703;28;20408;-47
2021/03/18 04:32:13;;;;;;;9.32;2.50;;;-1.80;99.90;;;;;;5053348;28;20387;-48
2021/03/18 04:34:39;;;;;;;13.80;2.20;;;-1.80;99.90;;;;;;5088215;28;20392;-48
2021/03/18 04:37:06;;;;;;;10.20;2.00;;;-1.80;99.90;;;;;;5052643;28;20478;-47
2021/03/18 04:39:34;;;;;;;9.63;2.15;;;-1.80;99.90;;;;;;5071144;28;20857;-47
2021/03/18 04:42:01;;;;;;;12.25;2.22;;;-1.80;99.90;;;;;;5087980;28;20430;-48
2021/03/18 04:44:27;;;;;;;7.25;2.10;;;-1.80;99.90;;;;;;5071538;28;20845;-47
2021/03/18 04:46:53;;;;;;;12.07;2.50;;;-1.90;99.90;;;;;;5060514;28;20741;-47
2021/03/18 04:49:20;;;;;;;4.93;2.00;;;-1.80;99.90;;;;;;5088886;28;20900;-47
2021/03/18 04:51:46;;;;;;;7.63;2.30;;;-1.80;99.90;;;;;;5060367;28;20898;-47
2021/03/18 04:54:12;;;;;;;8.23;1.98;;;-1.80;99.90;;;;;;5087909;28;20380;-48
2021/03/18 04:56:42;;;;;;;9.32;2.30;;;-1.80;99.90;;;;;;5087784;28;20404;-48
2021/03/18 04:59:09;;;;;;;7.77;2.37;;;-1.80;99.90;;;;;;5057889;28;20379;-46
2021/03/18 05:01:35;;;;;;;12.50;2.30;;;-1.90;99.90;;;;;;5071217;28;20392;-46
2021/03/18 05:04:03;;;;;;;7.90;2.30;;;-1.90;99.90;;;;;;5087836;28;20399;-46
2021/03/18 05:06:29;;;;;;;13.77;2.50;;;-1.90;99.90;;;;;;5071887;28;20439;-48
2021/03/18 05:08:55;;;;;;;6.50;1.92;;;-1.90;99.90;;;;;;5071762;28;20391;-47
2021/03/18 05:11:21;;;;;;;10.07;2.20;;;-1.90;99.90;;;;;;5071185;28;20388;-47
2021/03/18 05:13:47;;;;;;;17.33;2.30;;;-1.90;99.90;;;;;;5061762;28;20710;-46
2021/03/18 05:16:14;;;;;;;13.88;2.63;;;-1.90;99.90;;;;;;5086808;28;20400;-47
2021/03/18 05:18:40;;;;;;;11.63;2.27;;;-2.00;99.90;;;;;;5088135;28;20398;-47
2021/03/18 05:21:06;;;;;;;11.23;2.10;;;-2.00;99.90;;;;;;5066722;28;20480;-47
2021/03/18 05:23:33;;;;;;;7.93;2.30;;;-2.00;99.90;;;;;;5069580;28;20385;-47
2021/03/18 05:26:00;;;;;;;22.65;2.47;;;-1.90;99.90;;;;;;5065637;28;20388;-46
2021/03/18 05:28:26;;;;;;;11.82;2.20;;;-1.90;99.90;;;;;;5088434;28;20380;-48
2021/03/18 05:30:52;;;;;;;14.40;2.60;;;-1.90;99.90;;;;;;5086146;28;20399;-46
2021/03/18 05:33:19;;;;;;;16.10;2.40;;;-1.90;99.90;;;;;;5090601;28;20419;-46
2021/03/18 05:35:45;;;;;;;16.17;2.65;;;-1.90;99.90;;;;;;5091782;28;20404;-46
2021/03/18 05:38:13;;;;;;;16.75;2.78;;;-1.90;99.90;;;;;;5091325;28;20392;-47
2021/03/18 05:40:39;;;;;;;12.40;2.75;;;-1.90;99.90;;;;;;5092095;28;20381;-47
2021/03/18 05:43:06;;;;;;;14.40;3.05;;;-1.80;99.90;;;;;;5069203;28;20469;-47
2021/03/18 05:45:32;;;;;;;18.45;2.60;;;-1.80;99.90;;;;;;5069859;28;20437;-46
2021/03/18 05:47:58;;;;;;;19.30;3.10;;;-1.80;99.90;;;;;;5090763;28;20368;-47
2021/03/18 05:50:25;;;;;;;14.82;2.92;;;-1.70;99.90;;;;;;5090929;28;20384;-47
2021/03/18 05:52:51;;;;;;;18.90;3.50;;;-1.70;99.90;;;;;;5071053;28;20891;-47
2021/03/18 05:55:22;;;;;;;17.20;3.03;;;-1.60;99.90;;;;;;5094297;28;20397;-46
2021/03/18 05:57:49;;;;;;;32.58;3.20;;;-1.60;99.90;;;;;;5093345;28;20393;-47
2021/03/18 06:00:16;;;;;;;19.52;3.08;;;-1.50;99.90;;;;;;5092822;28;20377;-47
2021/03/18 06:02:42;;;;;;;19.58;2.80;;;-1.40;99.90;;;;;;5093109;28;20729;-44
2021/03/18 06:05:10;;;;;;;14.55;2.60;;;-1.40;99.90;;;;;;5070289;28;20389;-44
2021/03/18 06:07:37;;;;;;;23.67;3.30;;;-1.30;99.90;;;;;;5071614;28;20868;-46
2021/03/18 06:10:07;;;;;;;23.48;3.05;;;-1.20;99.90;;;;;;5072478;28;20745;-46
2021/03/18 06:12:36;;;;;;;14.57;2.80;;;-1.20;99.90;;;;;;5091387;28;20384;-45
2021/03/18 06:15:04;;;;;;;25.38;3.50;;;-1.10;99.90;;;;;;5089012;28;20396;-46
2021/03/18 06:17:31;;;;;;;21.80;3.17;;;-1.00;99.90;;;;;;5090795;28;20741;-46
2021/03/18 06:19:58;;;;;;;22.40;3.17;;;-1.00;99.90;;;;;;5089048;28;20399;-45
2021/03/18 06:22:39;;;;;;;20.20;3.10;;;-0.90;99.90;;;;;;5091393;28;20391;-46
2021/03/18 06:25:21;;;;;;;26.53;3.07;;;-0.90;99.90;;;;;;5089199;28;20879;-45
2021/03/18 06:27:48;;;;;;;29.40;3.42;;;-0.80;99.90;;;;;;5090236;28;20422;-47
2021/03/18 06:30:14;;;;;;;23.83;3.30;;;-0.80;99.90;;;;;;5069161;28;20868;-45
2021/03/18 06:32:40;;;;;;;25.98;3.70;;;-0.70;99.90;;;;;;5090308;28;20824;-45
2021/03/18 06:35:09;;;;;;;29.55;3.33;;;-0.70;99.90;;;;;;5090465;28;20388;-46
2021/03/18 06:37:42;;;;;;;26.40;3.00;;;-0.60;99.90;;;;;;5091217;28;20408;-45
2021/03/18 06:40:18;;;;;;;49.35;4.32;;;-0.50;99.90;;;;;;5088781;28;20868;-46
2021/03/18 06:42:54;;;;;;;17.40;3.17;;;-0.40;99.90;;;;;;5090809;28;20387;-46
2021/03/18 06:45:21;;;;;;;16.20;2.75;;;-0.30;99.90;;;;;;5086700;28;20400;-48
2021/03/18 06:47:48;;;;;;;15.60;2.80;;;-0.20;99.90;;;;;;5090908;28;20385;-47
2021/03/18 06:50:22;;;;;;;27.67;4.00;;;-0.10;99.90;;;;;;5070795;28;20388;-47
2021/03/18 06:52:48;;;;;;;27.77;3.35;;;0.10;99.90;;;;;;5088909;28;20376;-47
2021/03/18 06:55:33;;;;;;;24.27;3.50;;;0.20;99.90;;;;;;5090873;28;20753;-46
2021/03/18 06:58:25;;;;;;;19.57;3.10;;;0.30;99.90;;;;;;5091259;28;20904;-46
2021/03/18 07:00:56;;;;;;;26.00;3.83;;;0.40;99.90;;;;;;5071749;28;20404;-46
2021/03/18 07:03:33;;;;;;;31.17;3.67;;;0.50;99.90;;;;;;5086775;28;20400;-46
2021/03/18 07:06:00;;;;;;;19.33;3.20;;;0.70;99.90;;;;;;5090391;28;20408;-47
2021/03/18 07:08:28;;;;;;;18.10;4.15;;;0.80;99.90;;;;;;5088658;28;20391;-47
2021/03/18 07:10:55;;;;;;;13.18;2.75;;;0.90;99.70;;;;;;5054217;28;20402;-47
2021/03/18 07:13:24;;;;;;;11.90;2.35;;;1.00;98.40;;;;;;5089910;28;20388;-46
2021/03/18 07:15:50;;;;;;;12.00;2.75;;;1.10;97.90;;;;;;5089535;28;20407;-47
2021/03/18 07:18:17;;;;;;;15.13;2.00;;;1.20;97.00;;;;;;5089885;28;20396;-46
2021/03/18 07:21:04;;;;;;;13.73;2.00;;;1.20;95.90;;;;;;5072343;28;21026;-46
2021/03/18 07:23:41;;;;;;;10.48;1.95;;;1.30;95.80;;;;;;5089809;28;20388;-46
2021/03/18 07:26:18;;;;;;;12.13;2.00;;;1.50;95.70;;;;;;5090077;28;20385;-45
2021/03/18 07:28:51;;;;;;;9.47;2.00;;;1.60;93.80;;;;;;5090716;28;20880;-47
2021/03/18 07:31:18;;;;;;;16.60;2.10;;;1.70;93.70;;;;;;5088330;28;20391;-47
2021/03/18 07:33:44;;;;;;;15.20;1.95;;;1.80;93.60;;;;;;5090209;28;20389;-47
2021/03/18 07:36:11;;;;;;;15.77;1.88;;;2.00;92.80;;;;;;5056299;28;20532;-46
2021/03/18 07:38:38;;;;;;;12.83;1.90;;;2.10;93.00;;;;;;5090465;28;20895;-46
2021/03/18 07:41:12;;;;;;;11.35;1.90;;;2.10;91.30;;;;;;5089779;28;20392;-47
2021/03/18 07:43:40;;;;;;;14.63;2.05;;;2.30;91.20;;;;;;5090635;28;20372;-47
2021/03/18 07:46:07;;;;;;;10.18;1.88;;;2.50;91.80;;;;;;5070553;28;20381;-46
2021/03/18 07:48:33;;;;;;;13.63;1.95;;;2.70;91.10;;;;;;5089565;28;20399;-46
2021/03/18 07:50:59;;;;;;;13.63;2.20;;;3.00;91.30;;;;;;5065388;28;20381;-46
2021/03/18 07:53:25;;;;;;;17.98;3.15;;;3.30;90.40;;;;;;5070289;28;20384;-47
2021/03/18 07:55:51;;;;;;;26.35;3.30;;;3.50;88.80;;;;;;5069657;28;20399;-47
2021/03/18 07:58:40;;;;;;;19.65;3.15;;;3.90;87.70;;;;;;5068002;28;20408;-50
2021/03/18 08:01:06;;;;;;;28.55;4.47;;;4.40;84.10;;;;;;5087502;28;20396;-47
2021/03/18 08:03:32;;;;;;;30.20;4.50;;;4.80;82.00;;;;;;5088179;28;20392;-45
2021/03/18 08:05:59;;;;;;;27.48;4.47;;;5.20;80.90;;;;;;5088950;28;20986;-49
2021/03/18 08:08:31;;;;;;;22.52;3.60;;;5.70;79.40;;;;;;5054625;28;20408;-49
2021/03/18 08:11:07;;;;;;;24.58;3.05;;;6.00;74.30;;;;;;5089350;28;20376;-49
2021/03/18 08:13:34;;;;;;;21.88;3.80;;;6.70;70.50;;;;;;5088805;28;20383;-48
2021/03/18 08:16:00;;;;;;;18.80;3.10;;;6.80;68.40;;;;;;5070252;28;20385;-48
2021/03/18 08:18:26;;;;;;;17.08;2.42;;;7.10;63.60;;;;;;5088303;28;20395;-48
2021/03/18 08:20:52;;;;;;;20.63;1.88;;;7.30;59.60;;;;;;5087723;28;20391;-48
2021/03/18 08:23:28;;;;;;;47.60;2.83;;;7.00;56.70;;;;;;5083775;28;20757;-49
2021/03/18 08:26:04;;;;;;;10.32;1.77;;;6.90;58.00;;;;;;5087195;28;20410;-48
2021/03/18 08:29:05;;;;;;;9.45;1.40;;;7.20;58.60;;;;;;5087947;28;20737;-48
2021/03/18 08:31:34;;;;;;;10.10;1.83;;;7.90;56.40;;;;;;5087901;28;20388;-48
2021/03/18 08:34:03;;;;;;;20.45;1.65;;;8.30;53.90;;;;;;5089177;28;20899;-48
2021/03/18 08:36:36;;;;;;;6.85;1.23;;;8.20;52.30;;;;;;5085781;28;20493;-48
2021/03/18 08:39:10;;;;;;;14.65;1.60;;;8.50;50.10;;;;;;5088481;28;20376;-48
2021/03/18 08:41:53;;;;;;;22.95;2.17;;;8.50;50.30;;;;;;5053504;28;20392;-49
2021/03/18 08:44:31;;;;;;;50.42;3.20;;;8.50;53.00;;;;;;5089047;28;20376;-47
2021/03/18 08:47:02;;;;;;;17.40;2.00;;;9.00;51.60;;;;;;5087329;28;20899;-47
2021/03/18 08:49:29;;;;;;;24.55;2.00;;;9.40;49.00;;;;;;5086929;28;20389;-47
2021/03/18 08:52:09;;;;;;;20.55;2.90;;;9.20;47.40;;;;;;5088745;28;20388;-46
2021/03/18 08:54:38;;;;;;;19.27;2.25;;;9.40;48.50;;;;;;5086653;28;20391;-46
2021/03/18 08:57:09;;;;;;;24.02;2.60;;;9.90;48.20;;;;;;5087669;28;20412;-47
2021/03/18 08:59:39;;;;;;;17.00;1.43;;;10.10;46.90;;;;;;5087066;28;20403;-47
2021/03/18 09:02:09;;;;;;;11.93;1.48;;;10.30;46.80;;;;;;5069185;28;20722;-47
2021/03/18 09:04:46;;;;;;;14.38;1.60;;;11.00;42.90;;;;;;5070518;28;20391;-46
2021/03/18 09:07:14;;;;;;;8.80;1.50;;;11.20;43.40;;;;;;5088173;28;20411;-47
2021/03/18 09:09:43;;;;;;;16.15;1.70;;;10.90;42.10;;;;;;5090979;28;20400;-47
2021/03/18 09:12:09;;;;;;;6.45;1.20;;;10.80;43.20;;;;;;5091715;28;20384;-47
2021/03/18 09:14:37;;;;;;;12.85;1.65;;;10.90;43.00;;;;;;5073901;28;20894;-46
2021/03/18 09:17:10;;;;;;;3.20;0.60;;;11.50;40.70;;;;;;5091686;28;20404;-46
2021/03/18 09:19:46;;;;;;;3.70;0.55;;;11.10;35.40;;;;;;5091726;28;20369;-46
2021/03/18 09:22:13;;;;;;;3.33;0.50;;;11.10;38.50;;;;;;5072751;28;20400;-46
2021/03/18 09:24:41;;;;;;;1.98;0.40;;;11.10;36.50;;;;;;5091093;28;20386;-49
2021/03/18 09:27:11;;;;;;;5.43;0.52;;;11.20;35.80;;;;;;5090672;28;20404;-49
2021/03/18 09:29:38;;;;;;;4.15;0.60;;;11.60;38.30;;;;;;5074258;28;20384;-46
2021/03/18 09:32:13;;;;;;;7.80;0.90;;;12.30;33.20;;;;;;5092026;28;20396;-46
2021/03/18 09:34:44;;;;;;;2.70;0.47;;;11.90;35.30;;;;;;5091465;28;20381;-46
2021/03/18 09:37:10;;;;;;;2.78;0.40;;;11.80;33.10;;;;;;5091733;28;20404;-46
2021/03/18 09:39:37;;;;;;;6.80;0.52;;;12.00;36.80;;;;;;5090868;28;20380;-46
2021/03/18 09:42:05;;;;;;;3.73;0.60;;;11.60;35.00;;;;;;5092542;28;20397;-50
2021/03/18 09:44:32;;;;;;;4.40;0.70;;;12.00;34.80;;;;;;5072479;28;20388;-49
2021/03/18 09:46:59;;;;;;;4.63;0.70;;;11.00;34.50;;;;;;5092162;28;20392;-49
2021/03/18 09:49:39;;;;;;;5.20;0.60;;;10.80;37.10;;;;;;5072862;28;20396;-50
2021/03/18 09:52:09;;;;;;;19.23;1.63;;;10.40;37.20;;;;;;5090292;28;20907;-48
2021/03/18 09:54:35;;;;;;;3.97;0.50;;;10.60;36.80;;;;;;5087231;28;20400;-50
2021/03/18 09:57:04;;;;;;;1.98;0.63;;;10.70;38.40;;;;;;5091847;28;20409;-52
2021/03/18 09:59:30;;;;;;;4.53;0.60;;;10.70;37.40;;;;;;5090900;28;20749;-49
2021/03/18 10:01:57;;;;;;;4.25;0.57;;;11.10;38.00;;;;;;5091877;28;20405;-49
2021/03/18 10:04:23;;;;;;;3.75;0.60;;;12.50;37.00;;;;;;5090468;28;20399;-46
2021/03/18 10:06:53;;;;;;;1.40;0.35;;;13.50;33.30;;;;;;5092016;28;20385;-47
2021/03/18 10:09:23;;;;;;;6.82;0.60;;;13.30;33.30;;;;;;5056127;28;20380;-47
2021/03/18 10:11:55;;;;;;;5.13;0.57;;;11.90;33.30;;;;;;5089313;28;20395;-46
2021/03/18 10:14:32;;;;;;;5.38;0.60;;;11.90;34.60;;;;;;5090277;28;20384;-48
2021/03/18 10:17:02;;;;;;;2.97;0.50;;;12.70;33.40;;;;;;5066949;28;20412;-47
2021/03/18 10:19:30;;;;;;;5.55;0.63;;;12.90;34.30;;;;;;5055133;28;20894;-46
2021/03/18 10:22:01;;;;;;;1.10;0.30;;;12.10;35.10;;;;;;5073047;28;20388;-50
2021/03/18 10:24:27;;;;;;;2.97;0.50;;;11.70;33.60;;;;;;5073508;28;20376;-46
2021/03/18 10:26:53;;;;;;;2.55;0.50;;;12.20;32.80;;;;;;5090119;28;20637;-46
2021/03/18 10:29:19;;;;;;;3.25;0.47;;;12.30;30.30;;;;;;5091905;28;20389;-49
2021/03/18 10:31:45;;;;;;;3.67;0.50;;;12.90;29.90;;;;;;5092146;28;20865;-47
2021/03/18 10:34:24;;;;;;;2.37;0.60;;;13.40;29.40;;;;;;5073635;28;20737;-49
2021/03/18 10:36:51;;;;;;;2.97;0.80;;;14.00;28.60;;;;;;5072393;28;20400;-47
2021/03/18 10:39:23;;;;;;;2.55;0.32;;;13.80;28.00;;;;;;5092120;28;20451;-47
2021/03/18 10:41:57;;;;;;;1.50;0.50;;;13.70;29.90;;;;;;5091870;28;20381;-48
2021/03/18 10:44:46;;;;;;;3.23;0.50;;;14.90;27.10;;;;;;5088146;28;20400;-47
2021/03/18 10:47:19;;;;;;;39.87;1.50;;;15.50;24.70;;;;;;5089573;28;20381;-48
2021/03/18 10:50:04;;;;;;;4.57;0.50;;;15.30;26.70;;;;;;5092161;28;20381;-47
2021/03/18 10:52:30;;;;;;;3.30;0.40;;;16.20;24.00;;;;;;5090869;28;20748;-48
2021/03/18 10:54:57;;;;;;;4.93;0.90;;;16.40;23.80;;;;;;5092191;28;20903;-47
2021/03/18 10:57:24;;;;;;;3.55;0.55;;;16.20;23.80;;;;;;5092324;28;20416;-47
2021/03/18 10:59:57;;;;;;;2.60;0.50;;;15.50;24.20;;;;;;5091879;28;20388;-48
2021/03/18 11:02:30;;;;;;;3.00;0.50;;;15.60;24.30;;;;;;5092574;28;20396;-48
2021/03/18 11:04:57;;;;;;;9.02;0.85;;;15.90;24.10;;;;;;5086964;28;20396;-47
2021/03/18 11:07:23;;;;;;;3.47;0.47;;;15.70;22.00;;;;;;5091870;28;20395;-48
2021/03/18 11:10:13;;;;;;;4.43;0.47;;;14.70;25.60;;;;;;5074460;28;20399;-48
2021/03/18 11:12:40;;;;;;;6.90;0.60;;;16.20;25.00;;;;;;5092170;28;20380;-47
2021/03/18 11:15:08;;;;;;;2.80;0.40;;;15.90;24.50;;;;;;5090646;28;20464;-50
2021/03/18 11:17:34;;;;;;;3.10;0.50;;;16.70;25.00;;;;;;5072968;28;20423;-49
2021/03/18 11:20:20;;;;;;;4.63;0.55;;;17.00;23.10;;;;;;5091974;28;20407;-53
2021/03/18 11:22:55;;;;;;;2.57;0.37;;;16.50;23.80;;;;;;5090987;28;20423;-51
2021/03/18 11:25:21;;;;;;;3.75;0.40;;;15.70;24.80;;;;;;5071911;28;20399;-49
2021/03/18 11:27:50;;;;;;;4.22;0.40;;;16.70;22.80;;;;;;5073183;28;20392;-49
2021/03/18 11:30:26;;;;;;;8.15;0.75;;;17.20;22.40;;;;;;5090888;28;20387;-51
2021/03/18 11:33:11;;;;;;;4.67;0.50;;;16.10;22.10;;;;;;5072644;28;20384;-47
2021/03/18 11:35:38;;;;;;;2.72;0.47;;;16.60;23.50;;;;;;5091096;28;20899;-48
2021/03/18 11:38:04;;;;;;;12.30;0.60;;;17.10;23.60;;;;;;5072349;28;20423;-48
2021/03/18 11:40:30;;;;;;;4.07;0.45;;;17.30;24.20;;;;;;5091353;28;20369;-52
2021/03/18 11:42:57;;;;;;;7.68;0.45;;;17.50;22.70;;;;;;5091316;28;20404;-53
2021/03/18 11:45:23;;;;;;;3.35;0.47;;;17.40;22.30;;;;;;5090340;28;20462;-50
2021/03/18 11:47:49;;;;;;;2.10;0.30;;;17.20;22.40;;;;;;5091197;28;20388;-48
2021/03/18 11:50:15;;;;;;;3.00;0.40;;;17.90;22.20;;;;;;5090635;28;20403;-51
2021/03/18 11:52:41;;;;;;;1.88;0.30;;;16.20;22.90;;;;;;5091853;28;20391;-49
2021/03/18 11:55:08;;;;;;;5.25;0.45;;;16.40;25.60;;;;;;5088997;28;20397;-51
2021/03/18 11:57:34;;;;;;;2.70;0.30;;;17.20;25.00;;;;;;5089552;28;20420;-50
2021/03/18 12:00:01;;;;;;;2.15;0.70;;;17.20;22.70;;;;;;5091454;28;20380;-52
2021/03/18 12:02:27;;;;;;;2.40;0.40;;;16.80;23.70;;;;;;5085949;28;20401;-47
2021/03/18 12:04:53;;;;;;;3.95;0.40;;;16.10;24.70;;;;;;5090319;28;20403;-47
2021/03/18 12:07:19;;;;;;;2.80;0.40;;;15.30;24.50;;;;;;5071848;28;20427;-47
2021/03/18 12:09:46;;;;;;;5.88;0.60;;;15.10;25.70;;;;;;5090697;28;20392;-49
2021/03/18 12:12:12;;;;;;;8.88;0.60;;;14.40;26.90;;;;;;5089985;28;20872;-48
2021/03/18 12:14:38;;;;;;;3.80;0.40;;;14.40;26.60;;;;;;5089722;28;20968;-47
2021/03/18 12:17:04;;;;;;;1.67;0.30;;;14.30;27.20;;;;;;5090098;28;20439;-47
2021/03/18 12:19:30;;;;;;;2.95;0.60;;;12.60;27.80;;;;;;5089875;28;20415;-47
2021/03/18 12:21:56;;;;;;;10.80;0.88;;;12.60;30.00;;;;;;5090563;28;20407;-49
2021/03/18 12:24:23;;;;;;;7.40;0.70;;;12.20;31.20;;;;;;5090544;28;20376;-50
2021/03/18 12:26:49;;;;;;;2.85;0.47;;;12.30;34.20;;;;;;5090042;28;20437;-51
2021/03/18 12:29:15;;;;;;;5.85;0.40;;;12.50;31.50;;;;;;5090426;28;20388;-49
2021/03/18 12:31:41;;;;;;;2.50;0.40;;;12.40;30.90;;;;;;5090700;28;20396;-49
2021/03/18 12:34:07;;;;;;;3.20;0.50;;;12.50;31.60;;;;;;5090741;28;20892;-50
2021/03/18 12:36:35;;;;;;;3.53;0.50;;;11.70;30.00;;;;;;5071226;28;20408;-49
2021/03/18 12:39:04;;;;;;;1.13;0.30;;;11.50;31.40;;;;;;5072206;28;20431;-49
2021/03/18 12:41:31;;;;;;;2.13;0.50;;;10.40;34.30;;;;;;5071663;28;20465;-46
2021/03/18 12:43:58;;;;;;;3.85;0.70;;;9.80;36.20;;;;;;5090327;28;20399;-48
2021/03/18 12:46:24;;;;;;;7.40;0.70;;;10.30;35.60;;;;;;5070449;28;20400;-47
2021/03/18 12:48:50;;;;;;;5.20;0.50;;;10.50;36.90;;;;;;5089431;28;20387;-48
2021/03/18 12:51:16;;;;;;;5.57;0.60;;;10.80;35.30;;;;;;5090956;28;20385;-48
2021/03/18 12:53:42;;;;;;;2.72;0.63;;;10.10;38.40;;;;;;5090958;28;20379;-47